aviador You're here:

OINE Decoded Metar

KALALEH in IRAN
Report Time2018-06-21 21:00:00
UTC Time2018-06-21 21:55:28
Flight Rules vfr VFR
Wind180° at 04 kt
W.Decomp.*RWY 10: 1.0 kt HW 3.9 kt RCW
W.Rank180° ranks 2
Current wind is below 180° avg. (7.4)
Visibility9999 m
Phenomena:N/A
Clouds:Few 030 Hf
Scattered 100 Hf
Expected CloudBase > 2,000 ft AGL from Temp-Dew spread
CeilingNone
Temp23°C (ISA +9)
Dew Point18°C (74% RH)
QNH1013 hPa
Density Alt1,729 ft
Elevation425 ft
Report Wrong Elevation
Raw Report
METAR OINE 212100Z 18004KT 9999 FEW030 SCT100 23/18 Q1013=

Extra information for OINE:More info

Metar Taf Metar & Taf Last 4 Metars F.Rules Stats Wind Profile Meteogram Temp Stats Airport Information Weather charts Add Link Nearby VenuesMetar ALERT Operation Metar Decoded Social comments